Time;durP1;ratioP1;P1;durP2;ratioP2;P2;SDS_P1;SDS_P2;PMS_P1;PMS_P2;Temp;Humidity;BMP_temperature;BMP_pressure;BME280_temperature;BME280_humidity;BME280_pressure;Samples;Min_cycle;Max_cycle;Signal;HPM_P1;HPM_P2
2022/04/05 00:00:33;;;;;;;23.08;15.20;;;7.10;99.90;;;;;;5033204;28;20558;-81
2022/04/05 00:02:59;;;;;;;21.15;15.15;;;7.10;99.90;;;;;;5034236;28;20029;-80
2022/04/05 00:05:25;;;;;;;25.40;15.82;;;7.10;99.90;;;;;;5034355;28;20017;-81
2022/04/05 00:07:51;;;;;;;25.30;16.77;;;7.00;99.90;;;;;;5034329;28;20026;-81
2022/04/05 00:10:17;;;;;;;20.30;14.40;;;7.00;99.90;;;;;;5034059;28;20018;-81
2022/04/05 00:12:42;;;;;;;21.88;15.43;;;7.00;99.90;;;;;;5016394;28;20503;-81
2022/04/05 00:15:09;;;;;;;22.23;15.32;;;7.00;99.90;;;;;;5033938;28;20056;-81
2022/04/05 00:17:36;;;;;;;26.52;15.68;;;7.00;99.90;;;;;;5043866;28;20067;-81
2022/04/05 00:20:02;;;;;;;22.15;16.13;;;7.00;99.90;;;;;;5053651;28;20033;-81
2022/04/05 00:22:28;;;;;;;21.63;15.85;;;7.00;99.90;;;;;;5034146;28;20128;-81
2022/04/05 00:24:54;;;;;;;23.65;16.13;;;7.10;99.90;;;;;;5033627;28;20485;-81
2022/04/05 00:27:19;;;;;;;20.75;14.88;;;7.10;99.90;;;;;;5033667;28;20104;-81
2022/04/05 00:29:45;;;;;;;22.02;16.05;;;7.10;99.90;;;;;;5016277;28;20028;-81
2022/04/05 00:32:12;;;;;;;23.23;16.05;;;7.10;99.90;;;;;;5016012;28;20087;-81
2022/04/05 00:34:39;;;;;;;24.50;16.05;;;7.10;99.90;;;;;;5015470;28;20041;-80
2022/04/05 00:37:05;;;;;;;23.73;15.43;;;7.10;99.90;;;;;;5033062;28;20029;-81
2022/04/05 00:39:31;;;;;;;23.52;16.70;;;7.10;99.90;;;;;;5033463;28;20037;-81
2022/04/05 00:41:57;;;;;;;24.23;15.73;;;7.20;99.90;;;;;;5015106;28;20104;-81
2022/04/05 00:44:23;;;;;;;21.08;15.35;;;7.20;99.90;;;;;;5032958;28;20473;-81
2022/04/05 00:46:51;;;;;;;23.80;16.05;;;7.20;99.90;;;;;;5024812;28;20087;-81
2022/04/05 00:49:27;;;;;;;24.33;16.48;;;7.10;99.90;;;;;;5032992;28;20081;-81
2022/04/05 00:51:53;;;;;;;23.55;16.52;;;7.10;99.90;;;;;;5033462;28;20021;-80
2022/04/05 00:54:21;;;;;;;25.63;17.00;;;7.10;99.90;;;;;;5015778;28;20109;-81
2022/04/05 00:56:48;;;;;;;25.15;16.45;;;7.10;99.90;;;;;;5033332;28;20049;-81
2022/04/05 00:59:17;;;;;;;21.88;15.82;;;7.10;99.90;;;;;;5033523;28;20034;-81
2022/04/05 01:01:44;;;;;;;22.42;16.80;;;7.10;99.90;;;;;;5033372;28;20400;-80
2022/04/05 01:04:12;;;;;;;23.67;17.45;;;7.10;99.90;;;;;;5033393;28;20022;-80
2022/04/05 01:06:44;;;;;;;27.58;16.55;;;7.00;99.90;;;;;;5015486;28;20065;-81
2022/04/05 01:09:10;;;;;;;24.85;16.40;;;7.10;99.90;;;;;;5033318;28;20024;-81
2022/04/05 01:11:36;;;;;;;23.80;16.73;;;7.00;99.90;;;;;;5033059;28;20579;-80
2022/04/05 01:14:03;;;;;;;24.13;17.35;;;7.00;99.90;;;;;;5033228;28;20032;-81
2022/04/05 01:16:31;;;;;;;22.55;16.45;;;7.00;99.90;;;;;;5015376;28;20044;-81
2022/04/05 01:18:57;;;;;;;26.20;17.52;;;7.00;99.90;;;;;;5015484;28;20389;-81
2022/04/05 01:21:23;;;;;;;23.05;16.13;;;7.00;99.90;;;;;;5033277;28;20030;-81
2022/04/05 01:24:08;;;;;;;23.60;17.35;;;7.00;99.90;;;;;;5031532;28;20392;-81
2022/04/05 01:26:46;;;;;;;22.73;17.08;;;7.00;99.90;;;;;;5031786;28;20477;-81
2022/04/05 01:29:13;;;;;;;22.10;16.92;;;7.00;99.90;;;;;;5015371;28;20032;-81
2022/04/05 01:31:43;;;;;;;31.45;17.75;;;7.00;99.90;;;;;;5031721;28;20021;-80
2022/04/05 01:34:09;;;;;;;24.42;16.98;;;7.10;99.90;;;;;;5032840;28;20057;-81
2022/04/05 01:36:50;;;;;;;26.30;17.17;;;7.10;99.90;;;;;;5015012;28;20530;-80
2022/04/05 01:39:17;;;;;;;29.30;18.52;;;7.10;99.90;;;;;;5031893;28;20030;-80
2022/04/05 01:41:44;;;;;;;23.52;16.70;;;7.10;99.90;;;;;;5015265;28;20032;-81
2022/04/05 01:44:11;;;;;;;25.88;17.95;;;7.10;99.90;;;;;;5032775;28;20037;-81
2022/04/05 01:46:37;;;;;;;25.70;17.98;;;7.10;99.90;;;;;;5032641;28;20699;-81
2022/04/05 01:49:11;;;;;;;25.55;17.40;;;7.00;99.90;;;;;;5043482;28;20408;-81
2022/04/05 01:51:37;;;;;;;26.65;17.30;;;7.10;99.90;;;;;;5051563;28;20079;-81
2022/04/05 01:54:07;;;;;;;27.38;18.50;;;7.00;99.90;;;;;;5051306;28;20025;-81
2022/04/05 01:56:54;;;;;;;25.15;17.48;;;7.00;99.90;;;;;;5051646;28;20025;-81
2022/04/05 01:59:22;;;;;;;24.38;18.02;;;7.00;99.90;;;;;;5033023;28;20037;-81
2022/04/05 02:01:49;;;;;;;30.80;19.27;;;7.00;99.90;;;;;;5033317;28;20384;-81
2022/04/05 02:04:15;;;;;;;26.60;19.20;;;6.90;99.90;;;;;;5034283;28;20076;-81
2022/04/05 02:06:43;;;;;;;25.52;17.30;;;6.90;99.90;;;;;;5034679;28;20032;-81
2022/04/05 02:09:09;;;;;;;27.83;18.83;;;6.80;99.90;;;;;;5052563;28;20115;-81
2022/04/05 02:11:35;;;;;;;27.90;19.02;;;6.80;99.90;;;;;;5052508;28;20013;-81
2022/04/05 02:14:01;;;;;;;28.45;18.38;;;6.70;99.90;;;;;;5052479;28;20515;-81
2022/04/05 02:16:27;;;;;;;28.35;20.08;;;6.80;99.90;;;;;;5052595;28;20025;-81
2022/04/05 02:18:53;;;;;;;28.88;19.75;;;6.80;99.90;;;;;;5052705;28;20021;-81
2022/04/05 02:21:19;;;;;;;32.58;20.55;;;6.80;99.90;;;;;;5052524;28;20459;-81
2022/04/05 02:23:45;;;;;;;29.50;19.83;;;6.90;99.90;;;;;;5052859;28;20021;-80
2022/04/05 02:26:11;;;;;;;27.55;19.27;;;6.90;99.90;;;;;;5056528;28;20032;-81
2022/04/05 02:28:37;;;;;;;29.77;19.60;;;6.90;99.90;;;;;;5038376;28;20399;-81
2022/04/05 02:31:03;;;;;;;29.27;20.10;;;6.90;99.90;;;;;;5056250;28;20021;-81
2022/04/05 02:33:28;;;;;;;30.00;20.27;;;6.90;99.90;;;;;;5038085;28;20029;-81
2022/04/05 02:35:54;;;;;;;32.05;19.40;;;6.90;99.90;;;;;;5056154;28;20029;-82
2022/04/05 02:38:20;;;;;;;30.55;19.50;;;6.90;99.90;;;;;;5056072;28;20028;-81
2022/04/05 02:40:46;;;;;;;31.67;19.98;;;6.90;99.90;;;;;;5037667;28;20112;-81
2022/04/05 02:43:12;;;;;;;28.88;19.38;;;6.80;99.90;;;;;;5055888;28;20388;-81
2022/04/05 02:45:38;;;;;;;34.22;20.20;;;6.80;99.90;;;;;;5055855;28;20040;-81
2022/04/05 02:48:04;;;;;;;31.27;20.63;;;6.80;99.90;;;;;;5037707;28;20411;-81
2022/04/05 02:50:30;;;;;;;29.08;21.40;;;6.80;99.90;;;;;;5055758;28;20017;-81
2022/04/05 02:52:56;;;;;;;34.88;20.80;;;6.70;99.90;;;;;;5055611;28;20496;-81
2022/04/05 02:55:22;;;;;;;31.70;20.15;;;6.70;99.90;;;;;;5037421;28;20121;-74
2022/04/05 02:57:50;;;;;;;33.88;20.55;;;6.70;99.90;;;;;;5037110;28;20025;-73
2022/04/05 03:00:17;;;;;;;28.15;20.60;;;6.70;99.90;;;;;;5037038;28;20029;-73
2022/04/05 03:02:43;;;;;;;31.55;20.38;;;6.70;99.90;;;;;;5037180;28;20666;-73
2022/04/05 03:05:10;;;;;;;33.97;20.90;;;6.70;99.90;;;;;;5054037;28;20021;-73
2022/04/05 03:07:37;;;;;;;30.55;20.45;;;6.70;99.90;;;;;;5054033;28;20108;-73
2022/04/05 03:10:08;;;;;;;33.83;20.60;;;6.70;99.90;;;;;;5054569;28;20017;-74
2022/04/05 03:12:35;;;;;;;28.02;20.05;;;6.70;99.90;;;;;;5036852;28;20029;-73
2022/04/05 03:15:06;;;;;;;33.65;21.50;;;6.70;99.90;;;;;;5036752;28;20033;-73
2022/04/05 03:17:32;;;;;;;31.60;20.52;;;6.60;99.90;;;;;;5054807;28;20021;-73
2022/04/05 03:20:03;;;;;;;31.00;20.88;;;6.70;99.90;;;;;;5054742;28;20624;-73
2022/04/05 03:22:29;;;;;;;31.08;21.48;;;6.70;99.90;;;;;;5036508;28;20033;-73
2022/04/05 03:24:55;;;;;;;30.35;19.50;;;6.80;99.90;;;;;;5054691;28;20099;-73
2022/04/05 03:27:21;;;;;;;31.77;21.60;;;6.70;99.90;;;;;;5036654;28;20047;-73
2022/04/05 03:29:46;;;;;;;31.55;21.20;;;6.80;99.90;;;;;;5054688;28;20613;-73
2022/04/05 03:32:12;;;;;;;30.55;20.92;;;6.80;99.90;;;;;;5054682;28;20029;-73
2022/04/05 03:34:39;;;;;;;29.98;19.92;;;6.70;99.90;;;;;;5054254;28;20056;-73
2022/04/05 03:37:05;;;;;;;30.85;20.90;;;6.80;99.90;;;;;;5054202;28;20075;-73
2022/04/05 03:39:31;;;;;;;30.58;20.45;;;6.80;99.90;;;;;;5054240;28;20028;-74
2022/04/05 03:41:57;;;;;;;35.83;20.65;;;6.80;99.90;;;;;;5054241;28;20028;-73
2022/04/05 03:44:24;;;;;;;33.70;21.30;;;6.80;99.90;;;;;;5053813;28;20017;-74
2022/04/05 03:46:51;;;;;;;30.25;20.48;;;6.80;99.90;;;;;;5036599;28;20028;-73
2022/04/05 03:49:17;;;;;;;30.50;19.52;;;6.80;99.90;;;;;;5036063;28;20041;-73
2022/04/05 03:51:42;;;;;;;35.15;21.63;;;6.90;99.90;;;;;;5054244;28;20024;-73
2022/04/05 03:54:09;;;;;;;33.45;21.40;;;6.90;99.90;;;;;;5036003;28;20071;-74
2022/04/05 03:56:34;;;;;;;31.02;20.75;;;6.90;99.90;;;;;;5054086;28;20043;-73
2022/04/05 03:59:00;;;;;;;33.00;20.50;;;6.80;99.90;;;;;;5036260;28;20123;-73
2022/04/05 04:01:26;;;;;;;37.90;21.15;;;6.80;99.90;;;;;;5053894;28;20036;-73
2022/04/05 04:03:52;;;;;;;33.20;20.65;;;6.80;99.90;;;;;;5053871;28;20472;-73
2022/04/05 04:06:17;;;;;;;34.03;20.25;;;6.80;99.90;;;;;;5035975;28;20052;-73
2022/04/05 04:08:43;;;;;;;34.40;21.42;;;6.80;99.90;;;;;;5066922;28;20063;-73
2022/04/05 04:11:09;;;;;;;30.15;20.48;;;6.70;99.90;;;;;;5073875;28;20024;-73
2022/04/05 04:13:35;;;;;;;30.20;20.15;;;6.70;99.90;;;;;;5073431;28;20036;-74
2022/04/05 04:16:01;;;;;;;33.38;20.75;;;6.70;99.90;;;;;;5073865;28;20048;-73
2022/04/05 04:18:26;;;;;;;32.88;21.23;;;6.60;99.90;;;;;;5073583;28;20087;-73
2022/04/05 04:20:52;;;;;;;34.65;20.67;;;6.70;99.90;;;;;;5042996;28;20075;-73
2022/04/05 04:23:19;;;;;;;32.67;20.73;;;6.70;99.90;;;;;;5033479;28;20477;-73
2022/04/05 04:25:45;;;;;;;28.17;18.83;;;6.60;99.90;;;;;;5033682;28;20033;-73
2022/04/05 04:28:11;;;;;;;33.58;21.17;;;6.60;99.90;;;;;;5033393;28;20028;-73
2022/04/05 04:30:38;;;;;;;29.58;19.55;;;6.60;99.90;;;;;;5033436;28;20029;-74
2022/04/05 04:33:05;;;;;;;31.67;20.55;;;6.60;99.90;;;;;;5033441;28;20401;-73
2022/04/05 04:35:31;;;;;;;31.45;19.85;;;6.60;99.90;;;;;;5033165;28;20017;-73
2022/04/05 04:37:58;;;;;;;32.63;21.33;;;6.70;99.90;;;;;;5033409;28;20021;-73
2022/04/05 04:40:25;;;;;;;30.98;19.88;;;6.60;99.90;;;;;;5033525;28;20044;-73
2022/04/05 04:42:51;;;;;;;34.10;21.75;;;6.70;99.90;;;;;;5033140;28;20057;-73
2022/04/05 04:45:17;;;;;;;36.97;22.05;;;6.60;99.90;;;;;;5048269;28;20652;-73
2022/04/05 04:47:43;;;;;;;29.55;19.30;;;6.60;99.90;;;;;;5051459;28;20017;-73
2022/04/05 04:50:11;;;;;;;35.13;21.10;;;6.60;99.90;;;;;;5051902;28;20025;-73
2022/04/05 04:52:38;;;;;;;37.20;22.25;;;6.60;99.90;;;;;;5034183;28;20039;-73
2022/04/05 04:55:05;;;;;;;32.25;21.02;;;6.60;99.90;;;;;;5033984;28;20021;-73
2022/04/05 04:57:31;;;;;;;33.25;19.50;;;6.50;99.90;;;;;;5051840;28;20016;-73
2022/04/05 04:59:57;;;;;;;32.10;19.90;;;6.60;99.90;;;;;;5052580;28;20415;-73
2022/04/05 05:02:22;;;;;;;34.88;20.45;;;6.50;99.90;;;;;;5052765;28;20025;-73
2022/04/05 05:04:49;;;;;;;36.90;20.92;;;6.50;99.90;;;;;;5052759;28;20595;-73
2022/04/05 05:07:15;;;;;;;32.40;20.60;;;6.50;99.90;;;;;;5034705;28;20473;-73
2022/04/05 05:09:41;;;;;;;34.92;20.98;;;6.40;99.90;;;;;;5034873;28;20032;-73
2022/04/05 05:12:10;;;;;;;37.00;22.90;;;6.40;99.90;;;;;;5052744;28;20475;-73
2022/04/05 05:14:38;;;;;;;33.70;19.83;;;6.50;99.90;;;;;;5033983;28;20021;-74
2022/04/05 05:17:05;;;;;;;40.60;20.98;;;6.40;99.90;;;;;;5034665;28;20020;-73
2022/04/05 05:19:31;;;;;;;39.03;22.27;;;6.40;99.90;;;;;;5052625;28;20021;-73
2022/04/05 05:21:56;;;;;;;30.52;20.40;;;6.40;99.90;;;;;;5034344;28;20104;-73
2022/04/05 05:24:22;;;;;;;31.15;19.15;;;6.40;99.90;;;;;;5052668;28;20104;-73
2022/04/05 05:26:48;;;;;;;30.75;20.33;;;6.30;99.90;;;;;;5052556;28;20021;-73
2022/04/05 05:29:15;;;;;;;30.20;19.75;;;6.20;99.90;;;;;;5052584;28;20473;-73
2022/04/05 05:31:41;;;;;;;35.47;21.25;;;6.10;99.90;;;;;;5052682;28;20017;-74
2022/04/05 05:34:07;;;;;;;33.90;22.20;;;6.10;99.90;;;;;;5052245;28;20043;-73
2022/04/05 05:36:33;;;;;;;31.35;19.95;;;6.20;99.90;;;;;;5051159;28;20021;-74
2022/04/05 05:38:59;;;;;;;32.03;20.42;;;6.10;99.90;;;;;;5033224;28;20460;-74
2022/04/05 05:41:24;;;;;;;36.58;21.33;;;6.10;99.90;;;;;;5051408;28;20029;-73
2022/04/05 05:43:50;;;;;;;31.83;20.02;;;6.20;99.90;;;;;;5033543;28;20025;-73
2022/04/05 05:46:17;;;;;;;31.10;20.80;;;6.20;99.90;;;;;;5052065;28;20017;-74
2022/04/05 05:48:42;;;;;;;30.27;20.23;;;6.20;99.90;;;;;;5052132;28;20451;-73
2022/04/05 05:51:08;;;;;;;33.78;20.95;;;6.30;99.90;;;;;;5034461;28;20025;-74
2022/04/05 05:53:35;;;;;;;33.97;21.90;;;6.30;99.90;;;;;;5051403;28;20033;-74
2022/04/05 05:56:01;;;;;;;33.75;21.90;;;6.40;99.90;;;;;;5052253;28;20029;-74
2022/04/05 05:58:27;;;;;;;34.35;21.63;;;6.50;99.90;;;;;;5052371;28;20021;-74
2022/04/05 06:00:53;;;;;;;40.80;22.42;;;6.50;99.90;;;;;;5056387;28;20365;-73
2022/04/05 06:03:19;;;;;;;34.47;22.38;;;6.60;99.90;;;;;;5037811;28;20027;-73
2022/04/05 06:05:46;;;;;;;34.20;22.00;;;6.70;99.90;;;;;;5056089;28;20025;-73
2022/04/05 06:08:13;;;;;;;37.20;23.50;;;6.70;99.90;;;;;;5056380;28;20394;-74
2022/04/05 06:10:39;;;;;;;39.88;23.58;;;6.90;99.90;;;;;;5038076;28;20131;-73
2022/04/05 06:13:05;;;;;;;40.22;24.90;;;6.90;99.90;;;;;;5037593;28;20048;-74
2022/04/05 06:15:32;;;;;;;39.92;25.23;;;7.00;99.90;;;;;;5036548;28;20064;-73
2022/04/05 06:17:58;;;;;;;42.35;25.42;;;7.00;99.90;;;;;;5036300;28;20024;-74
2022/04/05 06:20:24;;;;;;;43.08;24.58;;;7.10;99.90;;;;;;5037382;28;20032;-74
2022/04/05 06:22:52;;;;;;;37.08;23.80;;;7.20;99.90;;;;;;5055311;28;20025;-73
2022/04/05 06:25:24;;;;;;;38.72;23.70;;;7.20;99.90;;;;;;5055227;28;20376;-73
2022/04/05 06:27:50;;;;;;;42.72;24.58;;;7.20;99.90;;;;;;5037543;28;20120;-74
2022/04/05 06:30:17;;;;;;;49.53;25.80;;;7.20;99.90;;;;;;5037675;28;20040;-73
2022/04/05 06:32:43;;;;;;;45.70;25.13;;;7.30;99.90;;;;;;5054400;28;20025;-73
2022/04/05 06:35:11;;;;;;;40.40;24.15;;;7.20;99.90;;;;;;5054290;28;20025;-73
2022/04/05 06:37:38;;;;;;;40.72;24.67;;;7.30;99.90;;;;;;5054368;28;20005;-73
2022/04/05 06:40:05;;;;;;;39.80;25.30;;;7.30;99.90;;;;;;5036286;28;20407;-73
2022/04/05 06:42:32;;;;;;;36.13;23.95;;;7.30;99.90;;;;;;5036272;28;20048;-73
2022/04/05 06:44:58;;;;;;;40.88;26.25;;;7.30;99.90;;;;;;5054040;28;20395;-73
2022/04/05 06:47:23;;;;;;;38.05;24.55;;;7.30;99.90;;;;;;5054987;28;20437;-73
2022/04/05 06:49:49;;;;;;;41.22;24.85;;;7.40;99.90;;;;;;5055310;28;20072;-73
2022/04/05 06:52:15;;;;;;;39.40;24.75;;;7.40;99.90;;;;;;5036872;28;20048;-74
2022/04/05 06:54:41;;;;;;;41.85;26.90;;;7.40;99.90;;;;;;5037040;28;20104;-73
2022/04/05 06:57:07;;;;;;;46.10;26.60;;;7.40;99.90;;;;;;5055019;28;20013;-73
2022/04/05 06:59:33;;;;;;;45.42;26.75;;;7.40;99.90;;;;;;5055092;28;20044;-74
2022/04/05 07:01:58;;;;;;;47.20;27.10;;;7.50;99.90;;;;;;5037219;28;20066;-73
2022/04/05 07:04:24;;;;;;;46.22;27.90;;;7.50;99.90;;;;;;5054927;28;20050;-73
2022/04/05 07:06:50;;;;;;;41.92;27.02;;;7.60;99.90;;;;;;5037177;28;20036;-73
2022/04/05 07:09:16;;;;;;;47.00;26.52;;;7.60;99.90;;;;;;5054558;28;20025;-73
2022/04/05 07:11:42;;;;;;;39.95;24.80;;;7.70;99.90;;;;;;5036867;28;20052;-73
2022/04/05 07:14:08;;;;;;;44.20;27.17;;;7.70;99.90;;;;;;5055032;28;20378;-74
2022/04/05 07:16:33;;;;;;;40.42;25.58;;;7.80;99.90;;;;;;5037070;28;20021;-73
2022/04/05 07:18:59;;;;;;;41.03;26.65;;;7.80;99.90;;;;;;5054086;28;20021;-73
2022/04/05 07:21:26;;;;;;;46.38;27.20;;;7.80;99.90;;;;;;5053390;28;20025;-73
2022/04/05 07:23:51;;;;;;;40.53;26.45;;;7.80;99.90;;;;;;5035259;28;20086;-74
2022/04/05 07:26:21;;;;;;;45.20;27.17;;;7.80;99.90;;;;;;5035659;28;20025;-74
2022/04/05 07:28:47;;;;;;;41.13;26.38;;;7.80;99.90;;;;;;5053465;28;20021;-74
2022/04/05 07:31:13;;;;;;;44.40;26.42;;;7.70;99.90;;;;;;5035290;28;20025;-74
2022/04/05 07:33:39;;;;;;;38.10;25.65;;;7.80;99.90;;;;;;5035877;28;20017;-74
2022/04/05 07:36:04;;;;;;;40.33;26.85;;;7.80;99.90;;;;;;5054539;28;20032;-74
2022/04/05 07:38:30;;;;;;;43.13;26.58;;;7.90;99.90;;;;;;5036632;28;20365;-74
2022/04/05 07:40:56;;;;;;;43.63;26.95;;;7.90;99.90;;;;;;5054305;28;20032;-73
2022/04/05 07:43:24;;;;;;;44.97;27.42;;;8.00;99.90;;;;;;5054117;28;20028;-74
2022/04/05 07:45:51;;;;;;;43.05;26.05;;;8.10;99.90;;;;;;5054003;28;20028;-73
2022/04/05 07:48:18;;;;;;;51.85;26.85;;;8.20;99.90;;;;;;5054227;28;20044;-73
2022/04/05 07:50:44;;;;;;;40.28;25.83;;;8.20;99.90;;;;;;5053920;28;20025;-74
2022/04/05 07:53:10;;;;;;;43.03;25.50;;;8.20;99.90;;;;;;5054230;28;20127;-74
2022/04/05 07:55:35;;;;;;;40.22;24.80;;;8.30;99.90;;;;;;5054309;28;20082;-73
2022/04/05 07:58:01;;;;;;;49.13;27.23;;;8.30;99.90;;;;;;5054192;28;20025;-74
2022/04/05 08:00:28;;;;;;;44.35;27.65;;;8.40;99.90;;;;;;5035999;28;20426;-74
2022/04/05 08:02:54;;;;;;;48.30;26.10;;;8.50;99.90;;;;;;5053884;28;20376;-74
2022/04/05 08:05:19;;;;;;;40.13;25.30;;;8.50;99.90;;;;;;5046253;28;20024;-74
2022/04/05 08:07:46;;;;;;;42.13;26.88;;;8.60;99.90;;;;;;5074094;28;20021;-74
2022/04/05 08:10:13;;;;;;;40.78;24.88;;;8.70;99.90;;;;;;5073820;28;20484;-74
2022/04/05 08:12:43;;;;;;;40.42;26.17;;;8.70;99.90;;;;;;5055827;28;20025;-73
2022/04/05 08:15:11;;;;;;;48.50;26.23;;;8.70;99.90;;;;;;5073675;28;20024;-74
2022/04/05 08:17:37;;;;;;;48.08;27.88;;;8.80;99.90;;;;;;5073649;28;20029;-73
2022/04/05 08:20:04;;;;;;;44.90;27.52;;;8.80;99.90;;;;;;5050410;28;20025;-73
2022/04/05 08:22:30;;;;;;;43.95;25.85;;;8.90;99.90;;;;;;5031222;28;20029;-73
2022/04/05 08:24:56;;;;;;;49.25;27.35;;;9.00;99.90;;;;;;5027163;28;20073;-75
2022/04/05 08:27:22;;;;;;;41.60;26.42;;;9.00;99.90;;;;;;5050235;28;20033;-75
2022/04/05 08:29:48;;;;;;;47.22;27.33;;;9.00;99.90;;;;;;5048929;28;20107;-73
2022/04/05 08:32:14;;;;;;;48.05;26.55;;;9.00;99.90;;;;;;5050078;28;20029;-73
2022/04/05 08:34:42;;;;;;;43.08;26.55;;;9.10;99.90;;;;;;5049985;28;20025;-74
2022/04/05 08:37:08;;;;;;;42.75;25.75;;;9.20;99.90;;;;;;5049813;28;20024;-73
2022/04/05 08:39:37;;;;;;;48.67;28.63;;;9.30;99.90;;;;;;5050490;28;20029;-74
2022/04/05 08:42:06;;;;;;;50.85;28.77;;;9.30;99.90;;;;;;5049671;28;20735;-74
2022/04/05 08:44:33;;;;;;;43.28;27.40;;;9.30;99.90;;;;;;5049444;28;20028;-72
2022/04/05 08:47:03;;;;;;;46.08;26.48;;;9.40;99.90;;;;;;5050025;28;20079;-73
2022/04/05 08:49:30;;;;;;;46.28;27.08;;;9.50;99.90;;;;;;5048709;28;20049;-73
2022/04/05 08:51:56;;;;;;;41.05;24.80;;;9.60;99.90;;;;;;5047947;28;20036;-73
2022/04/05 08:54:22;;;;;;;34.65;23.77;;;9.60;99.90;;;;;;5029894;28;20025;-73
2022/04/05 08:56:48;;;;;;;40.85;24.25;;;9.70;99.90;;;;;;5029973;28;20095;-73
2022/04/05 08:59:14;;;;;;;37.42;24.27;;;9.80;99.90;;;;;;5048602;28;20074;-72
2022/04/05 09:01:43;;;;;;;35.90;23.92;;;9.80;99.90;;;;;;5048986;28;20021;-72
2022/04/05 09:04:10;;;;;;;36.83;23.23;;;9.90;99.90;;;;;;5031131;28;20029;-73
2022/04/05 09:06:51;;;;;;;42.17;24.70;;;10.00;99.90;;;;;;5028247;28;20119;-74
2022/04/05 09:09:17;;;;;;;37.08;22.50;;;10.00;99.90;;;;;;5049094;28;20115;-73
2022/04/05 09:11:54;;;;;;;37.47;24.40;;;10.10;99.90;;;;;;5049475;28;20100;-73
2022/04/05 09:14:24;;;;;;;37.47;23.77;;;10.20;99.90;;;;;;5049749;28;20029;-73
2022/04/05 09:17:08;;;;;;;37.00;22.45;;;10.20;99.90;;;;;;5029810;28;20615;-73
2022/04/05 09:19:42;;;;;;;35.13;22.67;;;10.20;99.90;;;;;;5031651;28;20432;-73
2022/04/05 09:22:08;;;;;;;39.40;22.88;;;10.40;99.90;;;;;;5048817;28;20024;-73
2022/04/05 09:24:39;;;;;;;35.97;22.58;;;10.30;99.90;;;;;;5048556;28;20124;-73
2022/04/05 09:27:05;;;;;;;41.50;22.00;;;10.30;99.90;;;;;;5049026;28;20083;-73
2022/04/05 09:29:49;;;;;;;33.70;21.98;;;10.40;99.90;;;;;;5049439;28;20104;-73
2022/04/05 09:32:52;;;;;;;34.20;21.92;;;10.60;99.90;;;;;;5030111;28;20025;-73
2022/04/05 09:35:42;;;;;;;36.60;21.33;;;10.70;99.90;;;;;;4968026;28;20023;-73
2022/04/05 09:38:14;;;;;;;34.50;21.58;;;10.80;99.90;;;;;;5036190;28;20037;-73
2022/04/05 09:40:41;;;;;;;34.15;21.20;;;10.90;99.90;;;;;;5049382;28;20025;-73
2022/04/05 09:43:14;;;;;;;37.15;20.65;;;10.90;99.90;;;;;;5048779;28;20514;-73
2022/04/05 09:46:01;;;;;;;38.10;20.65;;;11.00;99.90;;;;;;5031049;28;20478;-73
2022/04/05 09:48:32;;;;;;;34.55;21.00;;;11.10;99.90;;;;;;5048939;28;20033;-73
2022/04/05 09:51:10;;;;;;;32.35;20.80;;;11.20;99.90;;;;;;5048577;28;20018;-73
2022/04/05 09:53:39;;;;;;;29.30;19.08;;;11.30;99.90;;;;;;5030895;28;20487;-73
2022/04/05 09:56:14;;;;;;;28.13;17.60;;;11.40;99.90;;;;;;5049022;28;20033;-73
2022/04/05 09:58:53;;;;;;;30.02;18.75;;;11.50;99.90;;;;;;5049249;28;20037;-73
2022/04/05 10:01:22;;;;;;;30.40;18.63;;;11.70;99.90;;;;;;5048935;28;20044;-73
2022/04/05 10:04:04;;;;;;;29.40;19.05;;;11.90;99.90;;;;;;5047889;28;20111;-73
2022/04/05 10:06:31;;;;;;;36.20;19.38;;;12.10;99.90;;;;;;5029303;28;20072;-73
2022/04/05 10:09:00;;;;;;;29.88;17.65;;;12.30;99.50;;;;;;5028916;28;20013;-73
2022/04/05 10:11:28;;;;;;;27.75;17.83;;;12.30;98.30;;;;;;5010750;28;20025;-73
2022/04/05 10:13:55;;;;;;;26.67;16.88;;;12.20;98.00;;;;;;5011333;28;20029;-73
2022/04/05 10:16:29;;;;;;;28.35;16.42;;;12.10;97.40;;;;;;5028579;28;20570;-73
2022/04/05 10:19:04;;;;;;;27.95;17.33;;;12.10;97.10;;;;;;5028123;28;20040;-73
2022/04/05 10:21:34;;;;;;;25.80;17.27;;;12.10;97.30;;;;;;5040578;28;20067;-80
2022/04/05 10:24:02;;;;;;;26.77;16.50;;;12.30;97.30;;;;;;5048793;28;20025;-80
2022/04/05 10:26:29;;;;;;;22.63;15.65;;;12.30;96.50;;;;;;5032014;28;20642;-79
2022/04/05 10:28:58;;;;;;;26.10;15.95;;;12.40;95.40;;;;;;5048115;28;20058;-80
2022/04/05 10:31:31;;;;;;;25.73;16.15;;;12.40;95.40;;;;;;5047688;28;20100;-80
2022/04/05 10:34:00;;;;;;;22.63;16.23;;;12.30;94.70;;;;;;5029854;28;20445;-80
2022/04/05 10:36:26;;;;;;;24.15;16.17;;;12.40;96.60;;;;;;5047806;28;20021;-80
2022/04/05 10:39:11;;;;;;;24.58;15.00;;;12.70;96.20;;;;;;5047286;28;20033;-80
2022/04/05 10:41:37;;;;;;;26.88;16.15;;;12.70;95.20;;;;;;5031365;28;20025;-80
2022/04/05 10:44:24;;;;;;;24.08;16.83;;;12.80;95.60;;;;;;5048754;28;20032;-79
2022/04/05 10:47:03;;;;;;;24.92;16.33;;;12.90;94.60;;;;;;5035023;28;20879;-79
2022/04/05 10:49:39;;;;;;;26.45;15.48;;;12.80;94.70;;;;;;5034924;28;20045;-80
2022/04/05 10:52:06;;;;;;;22.17;15.35;;;13.00;94.40;;;;;;5034800;28;20022;-80
2022/04/05 10:55:06;;;;;;;22.05;15.20;;;13.10;94.10;;;;;;5052867;28;20079;-79
2022/04/05 10:57:37;;;;;;;24.60;15.40;;;13.20;93.20;;;;;;5053390;28;20108;-79
2022/04/05 11:00:14;;;;;;;25.25;14.70;;;13.20;92.80;;;;;;5053335;28;20588;-79
2022/04/05 11:03:00;;;;;;;21.48;13.93;;;13.50;93.00;;;;;;5052788;28;20025;-80
2022/04/05 11:05:35;;;;;;;23.27;13.43;;;13.60;92.10;;;;;;5053686;28;20480;-80
2022/04/05 11:08:10;;;;;;;26.45;13.50;;;13.70;92.40;;;;;;5053388;28;20538;-80
2022/04/05 11:10:44;;;;;;;21.15;13.63;;;13.70;90.50;;;;;;5053174;28;20018;-80
2022/04/05 11:13:13;;;;;;;19.92;14.43;;;13.80;91.00;;;;;;5052944;28;20036;-79
2022/04/05 11:15:53;;;;;;;25.88;13.93;;;13.90;90.60;;;;;;5052851;28;20029;-80
2022/04/05 11:18:25;;;;;;;19.65;13.32;;;14.00;91.20;;;;;;5053008;28;20021;-80
2022/04/05 11:20:53;;;;;;;18.30;13.13;;;14.10;90.20;;;;;;5053090;28;20040;-80
2022/04/05 11:23:36;;;;;;;25.88;14.75;;;14.20;91.10;;;;;;5035150;28;20943;-79
2022/04/05 11:26:25;;;;;;;19.80;13.82;;;14.20;88.90;;;;;;5053218;28;20025;-80
2022/04/05 11:28:50;;;;;;;18.10;13.20;;;14.20;86.90;;;;;;5035278;28;20481;-80
2022/04/05 11:31:32;;;;;;;23.90;14.13;;;14.20;86.70;;;;;;5053210;28;20017;-79
2022/04/05 11:33:58;;;;;;;25.23;16.30;;;14.20;85.40;;;;;;5052967;28;20017;-80
2022/04/05 11:36:25;;;;;;;24.67;15.23;;;14.20;85.30;;;;;;5053264;28;20744;-80
2022/04/05 11:39:00;;;;;;;23.17;15.07;;;14.30;90.10;;;;;;5034615;28;20055;-80
2022/04/05 11:41:28;;;;;;;24.83;15.18;;;14.40;87.20;;;;;;5052389;28;20516;-80
2022/04/05 11:44:00;;;;;;;23.10;14.80;;;14.40;86.70;;;;;;5052801;28;20221;-80
2022/04/05 11:46:46;;;;;;;26.38;15.63;;;14.50;86.60;;;;;;5052739;28;20025;-81
2022/04/05 11:49:13;;;;;;;30.13;15.63;;;14.60;87.70;;;;;;5051993;28;20029;-80
2022/04/05 11:51:48;;;;;;;33.85;16.92;;;14.70;85.30;;;;;;5052548;28;20025;-80
2022/04/05 11:54:27;;;;;;;24.52;15.10;;;14.60;84.00;;;;;;5052478;28;20029;-80
2022/04/05 11:56:54;;;;;;;25.90;17.02;;;14.70;86.70;;;;;;5052323;28;20078;-80
2022/04/05 11:59:27;;;;;;;23.42;15.75;;;14.90;85.00;;;;;;5052369;28;20028;-80
2022/04/05 12:01:53;;;;;;;28.65;16.15;;;14.90;84.00;;;;;;5052729;28;20112;-81
2022/04/05 12:04:22;;;;;;;25.10;15.63;;;15.00;84.00;;;;;;5052519;28;20379;-80
2022/04/05 12:06:52;;;;;;;23.67;16.05;;;15.10;86.10;;;;;;5052283;28;20171;-80
2022/04/05 12:09:19;;;;;;;24.10;15.23;;;15.20;84.00;;;;;;5052484;28;20029;-80
2022/04/05 12:11:48;;;;;;;27.23;16.58;;;15.30;84.30;;;;;;5052590;28;20021;-80
2022/04/05 12:14:15;;;;;;;29.95;15.85;;;15.30;83.10;;;;;;5052280;28;20024;-80
2022/04/05 12:16:54;;;;;;;23.98;16.92;;;15.50;83.40;;;;;;5052292;28;20439;-80
2022/04/05 12:19:21;;;;;;;29.95;18.02;;;15.50;80.30;;;;;;5034135;28;20029;-79
2022/04/05 12:22:01;;;;;;;29.90;17.98;;;15.40;78.40;;;;;;5052518;28;20492;-80
2022/04/05 12:24:28;;;;;;;25.17;16.55;;;15.50;82.00;;;;;;5052377;28;20032;-80
2022/04/05 12:26:59;;;;;;;26.30;17.63;;;15.70;82.70;;;;;;5052107;28;20028;-80
2022/04/05 12:29:29;;;;;;;27.98;18.42;;;15.80;82.60;;;;;;5051841;28;20054;-80
2022/04/05 12:32:03;;;;;;;28.25;17.83;;;15.90;80.20;;;;;;5051867;28;20048;-79
2022/04/05 12:34:29;;;;;;;30.83;18.50;;;15.90;78.60;;;;;;5052079;28;20039;-80
2022/04/05 12:37:02;;;;;;;27.00;17.35;;;16.00;79.10;;;;;;5051756;28;20447;-80
2022/04/05 12:39:31;;;;;;;26.45;17.33;;;16.00;78.40;;;;;;5051730;28;20029;-80